createdAt,value
2023-03-25T00:02:49.447Z,14.12
2023-03-25T00:13:15.558Z,14.19
2023-03-25T00:23:42.072Z,14.20
2023-03-25T00:34:07.439Z,14.29
2023-03-25T00:44:33.770Z,14.28
2023-03-25T00:54:59.245Z,14.25
2023-03-25T01:05:25.130Z,14.34
2023-03-25T01:15:51.400Z,14.41
2023-03-25T01:26:17.857Z,14.60
2023-03-25T01:36:46.914Z,14.72
2023-03-25T01:47:12.774Z,14.56
2023-03-25T01:57:43.960Z,14.15
2023-03-25T02:08:10.459Z,13.90
2023-03-25T02:18:45.600Z,13.69
2023-03-25T02:29:24.255Z,13.47
2023-03-25T02:39:57.030Z,13.42
2023-03-25T02:50:28.859Z,13.38
2023-03-25T03:00:59.173Z,13.20
2023-03-25T03:11:29.400Z,13.20
2023-03-25T03:22:01.321Z,13.23
2023-03-25T03:32:32.774Z,13.32
2023-03-25T03:43:02.774Z,13.32
2023-03-25T03:53:33.310Z,13.40
2023-03-25T04:04:02.312Z,13.48
2023-03-25T04:14:28.503Z,13.44
2023-03-25T04:24:56.341Z,13.36
2023-03-25T04:35:22.989Z,13.40
2023-03-25T04:45:54.544Z,13.34
2023-03-25T04:56:21.494Z,13.22
2023-03-25T05:06:49.500Z,13.18
2023-03-25T05:17:15.510Z,13.07
2023-03-25T05:27:41.720Z,13.08
2023-03-25T05:38:08.297Z,13.11
2023-03-25T05:48:35.841Z,13.07
2023-03-25T05:59:01.762Z,13.09
2023-03-25T06:09:31.220Z,13.03
2023-03-25T06:19:57.178Z,13.01
2023-03-25T06:30:23.995Z,12.91
2023-03-25T06:40:50.174Z,12.68
2023-03-25T06:51:16.330Z,12.46
2023-03-25T07:01:43.234Z,12.37
2023-03-25T07:12:09.907Z,12.43
2023-03-25T07:22:36.003Z,12.72
2023-03-25T07:33:01.955Z,13.28
2023-03-25T07:43:28.137Z,13.88
2023-03-25T07:53:53.816Z,14.12
2023-03-25T08:04:19.533Z,14.09
2023-03-25T08:14:45.244Z,14.24
2023-03-25T08:25:12.269Z,14.41
2023-03-25T08:35:39.813Z,14.55
2023-03-25T08:46:04.300Z,14.68
2023-03-25T08:56:30.239Z,14.73
2023-03-25T09:07:12.058Z,14.78
2023-03-25T09:17:38.672Z,14.73
2023-03-25T09:28:04.531Z,14.95
2023-03-25T09:38:32.012Z,15.13
2023-03-25T09:48:58.832Z,15.15
2023-03-25T09:59:28.812Z,15.14
2023-03-25T10:10:03.533Z,15.37
2023-03-25T10:20:43.337Z,15.68
2023-03-25T10:31:15.101Z,15.57
2023-03-25T10:41:43.715Z,15.29
2023-03-25T10:52:10.301Z,15.27
2023-03-25T11:02:36.454Z,15.29
2023-03-25T11:13:04.192Z,15.37
2023-03-25T11:23:33.372Z,15.40
2023-03-25T11:34:17.687Z,15.25
2023-03-25T11:44:44.527Z,15.06
2023-03-25T11:55:20.406Z,14.83
2023-03-25T12:05:58.074Z,14.67
2023-03-25T12:16:31.689Z,14.66
2023-03-25T12:27:10.151Z,14.37
2023-03-25T12:37:47.551Z,13.94
2023-03-25T12:48:26.972Z,13.60
2023-03-25T12:59:27.902Z,13.74
2023-03-25T13:10:01.468Z,13.80
2023-03-25T13:20:29.345Z,13.95
2023-03-25T13:30:57.853Z,14.13
2023-03-25T13:41:29.662Z,14.21
2023-03-25T13:51:56.313Z,14.10
2023-03-25T14:02:41.298Z,14.11
2023-03-25T14:13:10.225Z,13.79
2023-03-25T14:23:36.326Z,13.58
2023-03-25T14:34:26.869Z,13.46
2023-03-25T14:44:55.492Z,13.34
2023-03-25T14:55:27.358Z,13.20
2023-03-25T15:06:00.793Z,13.14
2023-03-25T15:16:35.788Z,13.09
2023-03-25T15:27:08.740Z,13.03
2023-03-25T15:37:55.085Z,13.05
2023-03-25T15:48:39.593Z,12.89
2023-03-25T15:59:13.771Z,12.72
2023-03-25T16:09:47.134Z,12.72
2023-03-25T16:20:19.434Z,12.80
2023-03-25T16:30:50.449Z,12.91
2023-03-25T16:41:17.667Z,13.01
2023-03-25T16:51:45.097Z,12.99
2023-03-25T17:02:27.990Z,13.02
2023-03-25T17:12:59.297Z,12.97
2023-03-25T17:23:34.458Z,13.00
2023-03-25T17:34:09.492Z,12.92
2023-03-25T17:44:37.868Z,12.95
2023-03-25T17:55:03.892Z,12.86
2023-03-25T18:05:29.952Z,12.88
2023-03-25T18:15:58.814Z,12.92
2023-03-25T18:26:22.675Z,12.81
2023-03-25T18:36:49.723Z,12.84
2023-03-25T18:47:15.589Z,12.79
2023-03-25T18:57:42.403Z,12.65
2023-03-25T19:08:09.094Z,12.50
2023-03-25T19:18:35.710Z,12.02
2023-03-25T19:29:01.900Z,11.87
2023-03-25T19:39:28.253Z,11.66
2023-03-25T19:49:54.319Z,11.45
2023-03-25T20:00:22.903Z,11.28
2023-03-25T20:10:48.318Z,11.15
2023-03-25T20:21:14.481Z,11.09
2023-03-25T20:31:40.813Z,10.97
2023-03-25T20:42:07.121Z,10.80
2023-03-25T20:52:32.816Z,10.76
2023-03-25T21:02:59.228Z,10.66
2023-03-25T21:13:26.547Z,10.62
2023-03-25T21:23:52.256Z,10.33
2023-03-25T21:34:18.395Z,10.11
2023-03-25T21:44:44.118Z,10.30
2023-03-25T21:55:11.329Z,10.47
2023-03-25T22:05:36.743Z,10.39
2023-03-25T22:16:02.791Z,10.33
2023-03-25T22:26:30.319Z,10.26
2023-03-25T22:36:56.167Z,10.15
2023-03-25T22:47:21.908Z,10.00
2023-03-25T22:57:47.937Z,9.91
2023-03-25T23:08:13.858Z,9.91
2023-03-25T23:18:41.997Z,9.80
2023-03-25T23:29:09.114Z,9.83
2023-03-25T23:39:35.084Z,9.87
2023-03-25T23:50:04.157Z,9.79
